Time;durP1;ratioP1;P1;durP2;ratioP2;P2;SDS_P1;SDS_P2;PMS_P1;PMS_P2;Temp;Humidity;BMP_temperature;BMP_pressure;BME280_temperature;BME280_humidity;BME280_pressure;Samples;Min_cycle;Max_cycle;Signal;HPM_P1;HPM_P2
2023/12/15 00:00:36;;;;;;;138.00;126.00;;;10.70;99.90;;;;;;5023331;28;20445;-72
2023/12/15 00:03:02;;;;;;;122.68;110.78;;;10.70;99.90;;;;;;5030598;28;20041;-72
2023/12/15 00:05:28;;;;;;;140.32;117.57;;;10.70;99.90;;;;;;5030873;28;20418;-72
2023/12/15 00:07:54;;;;;;;100.05;90.45;;;10.70;99.90;;;;;;5033628;28;20033;-72
2023/12/15 00:10:21;;;;;;;119.82;103.40;;;10.70;99.90;;;;;;5034528;28;20386;-72
2023/12/15 00:12:47;;;;;;;119.22;102.00;;;10.70;99.90;;;;;;5031567;28;20052;-72
2023/12/15 00:15:13;;;;;;;120.65;109.38;;;10.70;99.90;;;;;;5024052;28;20041;-72
2023/12/15 00:17:39;;;;;;;105.18;95.95;;;10.70;99.90;;;;;;5034872;28;20390;-72
2023/12/15 00:20:06;;;;;;;95.55;87.90;;;10.80;99.90;;;;;;5018240;28;20030;-72
2023/12/15 00:22:32;;;;;;;88.35;79.65;;;10.90;99.90;;;;;;5033618;28;20041;-72
2023/12/15 00:24:58;;;;;;;86.10;77.53;;;10.90;99.90;;;;;;5034541;28;20378;-72
2023/12/15 00:27:24;;;;;;;82.55;72.50;;;10.90;99.90;;;;;;5034357;28;20041;-72
2023/12/15 00:29:50;;;;;;;78.75;69.50;;;10.90;99.90;;;;;;5034254;28;20737;-72
2023/12/15 00:32:16;;;;;;;82.93;74.32;;;10.90;99.90;;;;;;5020677;28;20037;-72
2023/12/15 00:34:42;;;;;;;83.30;72.65;;;11.00;99.90;;;;;;5026212;28;20053;-72
2023/12/15 00:37:08;;;;;;;84.68;76.75;;;11.00;99.90;;;;;;5030003;28;20033;-72
2023/12/15 00:39:37;;;;;;;90.90;82.55;;;10.90;99.90;;;;;;5034581;28;20048;-72
2023/12/15 00:42:05;;;;;;;89.82;79.95;;;10.90;99.90;;;;;;5033909;28;20053;-72
2023/12/15 00:44:32;;;;;;;86.00;77.32;;;11.00;99.90;;;;;;5015414;28;20048;-72
2023/12/15 00:46:59;;;;;;;88.43;79.68;;;11.00;99.90;;;;;;5029936;28;20038;-72
2023/12/15 00:49:25;;;;;;;78.65;72.10;;;11.00;99.90;;;;;;5034078;28;20029;-72
2023/12/15 00:51:51;;;;;;;84.63;77.50;;;11.00;99.90;;;;;;5032763;28;20521;-73
2023/12/15 00:54:17;;;;;;;78.28;71.50;;;10.90;99.90;;;;;;5033987;28;20025;-72
2023/12/15 00:56:43;;;;;;;78.13;71.00;;;10.80;99.90;;;;;;5032907;28;20030;-72
2023/12/15 00:59:09;;;;;;;74.25;68.05;;;10.80;99.90;;;;;;5033603;28;20041;-72
2023/12/15 01:01:35;;;;;;;84.97;78.10;;;10.90;99.90;;;;;;5032435;28;20053;-72
2023/12/15 01:04:01;;;;;;;78.68;71.38;;;10.80;99.90;;;;;;5016169;28;20040;-72
2023/12/15 01:06:27;;;;;;;78.78;72.50;;;10.80;99.90;;;;;;5029533;28;20030;-72
2023/12/15 01:08:54;;;;;;;81.78;74.78;;;10.90;99.90;;;;;;5032419;28;20037;-73
2023/12/15 01:11:20;;;;;;;81.95;72.95;;;10.90;99.90;;;;;;5031715;28;20022;-72
2023/12/15 01:13:46;;;;;;;80.32;71.95;;;10.90;99.90;;;;;;5023929;28;20049;-69
2023/12/15 01:16:12;;;;;;;79.72;71.75;;;10.90;99.90;;;;;;5030064;28;20037;-69
2023/12/15 01:18:38;;;;;;;78.93;71.47;;;11.00;99.90;;;;;;5029881;28;20037;-69
2023/12/15 01:21:05;;;;;;;82.70;75.25;;;11.00;99.90;;;;;;5021780;28;20037;-69
2023/12/15 01:23:33;;;;;;;93.28;70.43;;;11.00;99.90;;;;;;5033281;28;20112;-68
2023/12/15 01:25:59;;;;;;;77.50;70.03;;;11.00;99.90;;;;;;5024366;28;20037;-69
2023/12/15 01:28:26;;;;;;;68.80;62.70;;;11.00;99.90;;;;;;5033544;28;20050;-69
2023/12/15 01:30:52;;;;;;;90.80;70.38;;;11.10;99.90;;;;;;5030446;28;20044;-68
2023/12/15 01:33:21;;;;;;;82.47;74.18;;;11.00;99.90;;;;;;5021747;28;20061;-69
2023/12/15 01:35:47;;;;;;;85.03;69.93;;;11.10;99.90;;;;;;5023833;28;20026;-69
2023/12/15 01:38:14;;;;;;;94.63;84.03;;;11.00;99.90;;;;;;5018641;28;20041;-68
2023/12/15 01:40:40;;;;;;;101.40;92.88;;;11.00;99.90;;;;;;5029232;28;20050;-69
2023/12/15 01:43:06;;;;;;;93.90;86.93;;;11.00;99.90;;;;;;5032924;28;20045;-69
2023/12/15 01:45:32;;;;;;;258.10;94.68;;;11.00;99.90;;;;;;5029989;28;20044;-69
2023/12/15 01:47:58;;;;;;;87.05;79.78;;;11.00;99.90;;;;;;5013532;28;20026;-69
2023/12/15 01:50:24;;;;;;;206.05;87.18;;;11.00;99.90;;;;;;5019018;28;20034;-69
2023/12/15 01:52:50;;;;;;;90.47;83.03;;;11.00;99.90;;;;;;5032969;28;20042;-69
2023/12/15 01:55:17;;;;;;;96.30;81.93;;;11.10;99.90;;;;;;5029081;28;20030;-69
2023/12/15 01:57:43;;;;;;;98.85;88.75;;;11.10;99.90;;;;;;5021221;28;20150;-69
2023/12/15 02:00:10;;;;;;;105.35;91.28;;;11.10;99.90;;;;;;5012905;28;20038;-69
2023/12/15 02:02:36;;;;;;;89.50;81.30;;;11.10;99.90;;;;;;5014273;28;20061;-69
2023/12/15 02:05:02;;;;;;;179.15;88.18;;;11.10;99.90;;;;;;5025330;28;20033;-69
2023/12/15 02:07:28;;;;;;;99.45;72.03;;;11.10;99.90;;;;;;5021446;28;20032;-69
2023/12/15 02:09:55;;;;;;;116.65;71.45;;;11.10;99.90;;;;;;5027840;28;20041;-70
2023/12/15 02:12:22;;;;;;;133.80;84.97;;;11.10;99.90;;;;;;5016838;28;20042;-69
2023/12/15 02:14:48;;;;;;;91.13;83.85;;;11.00;99.90;;;;;;5015215;28;20029;-68
2023/12/15 02:17:14;;;;;;;247.90;111.80;;;11.00;99.90;;;;;;5027640;28;20489;-68
2023/12/15 02:19:40;;;;;;;96.85;85.10;;;10.90;99.90;;;;;;5011150;28;20026;-68
2023/12/15 02:22:06;;;;;;;141.82;96.03;;;10.90;99.90;;;;;;5018087;28;20057;-71
2023/12/15 02:24:32;;;;;;;119.03;85.85;;;10.90;99.90;;;;;;5012757;28;20037;-71
2023/12/15 02:26:58;;;;;;;213.38;98.50;;;10.80;99.90;;;;;;5004738;28;20044;-72
2023/12/15 02:29:26;;;;;;;97.10;87.90;;;10.80;99.90;;;;;;5029959;28;20038;-71
2023/12/15 02:31:53;;;;;;;103.95;82.43;;;10.80;99.90;;;;;;5026638;28;20034;-71
2023/12/15 02:34:19;;;;;;;84.93;76.18;;;10.90;99.90;;;;;;5030859;28;20045;-71
2023/12/15 02:36:45;;;;;;;87.22;73.78;;;10.90;99.90;;;;;;5022874;28;20501;-71
2023/12/15 02:39:11;;;;;;;80.93;71.03;;;10.80;99.90;;;;;;5024481;28;20040;-71
2023/12/15 02:41:37;;;;;;;108.28;76.80;;;10.80;99.90;;;;;;5020080;28;20026;-71
2023/12/15 02:44:04;;;;;;;121.25;109.53;;;10.70;99.90;;;;;;5012793;28;20053;-72
2023/12/15 02:46:30;;;;;;;101.50;91.30;;;10.70;99.90;;;;;;5022916;28;20036;-72
2023/12/15 02:48:56;;;;;;;88.68;80.65;;;10.70;99.90;;;;;;5029324;28;20041;-71
2023/12/15 02:51:29;;;;;;;150.63;98.57;;;10.70;99.90;;;;;;5031886;28;20025;-71
2023/12/15 02:53:59;;;;;;;87.95;78.95;;;10.80;99.90;;;;;;5022479;28;20041;-71
2023/12/15 02:56:26;;;;;;;158.90;80.72;;;10.80;99.90;;;;;;5021698;28;20030;-71
2023/12/15 02:58:52;;;;;;;92.18;82.82;;;10.80;99.90;;;;;;5020066;28;20034;-71
2023/12/15 03:01:18;;;;;;;109.60;77.32;;;10.80;99.90;;;;;;5020592;28;20036;-71
2023/12/15 03:03:44;;;;;;;73.93;67.80;;;10.80;99.90;;;;;;5023437;28;20050;-71
2023/12/15 03:06:10;;;;;;;76.95;69.13;;;10.80;99.90;;;;;;5017434;28;20022;-71
2023/12/15 03:08:36;;;;;;;71.78;66.43;;;10.80;99.90;;;;;;5016072;28;20044;-72
2023/12/15 03:11:03;;;;;;;79.45;70.95;;;10.80;99.90;;;;;;5020297;28;20402;-71
2023/12/15 03:13:29;;;;;;;64.32;58.97;;;10.80;99.90;;;;;;5012792;28;20105;-71
2023/12/15 03:16:11;;;;;;;70.35;65.07;;;10.80;99.90;;;;;;5027925;28;20053;-71
2023/12/15 03:18:37;;;;;;;82.10;75.95;;;10.80;99.90;;;;;;5017590;28;20205;-71
2023/12/15 03:21:03;;;;;;;82.00;75.95;;;10.90;99.90;;;;;;5028928;28;20394;-72
2023/12/15 03:23:29;;;;;;;86.13;80.32;;;10.90;99.90;;;;;;5021950;28;20034;-71
2023/12/15 03:25:56;;;;;;;82.70;76.97;;;10.90;99.90;;;;;;5018165;28;20370;-71
2023/12/15 03:28:22;;;;;;;81.28;75.80;;;10.90;99.90;;;;;;5030500;28;20049;-72
2023/12/15 03:30:48;;;;;;;80.75;75.10;;;10.90;99.90;;;;;;5022769;28;20038;-71
2023/12/15 03:33:14;;;;;;;85.68;79.60;;;10.90;99.90;;;;;;5011660;28;20058;-71
2023/12/15 03:35:41;;;;;;;69.07;63.85;;;10.90;99.90;;;;;;5017138;28;20037;-68
2023/12/15 03:38:07;;;;;;;90.93;84.85;;;10.80;99.90;;;;;;5031902;28;20037;-68
2023/12/15 03:40:33;;;;;;;76.95;71.43;;;10.90;99.90;;;;;;5024749;28;20509;-68
2023/12/15 03:42:59;;;;;;;76.88;71.15;;;10.90;99.90;;;;;;5034893;28;20041;-68
2023/12/15 03:45:25;;;;;;;69.00;63.78;;;10.80;99.90;;;;;;5031162;28;21378;-68
2023/12/15 03:47:51;;;;;;;73.38;68.22;;;10.80;99.90;;;;;;5026763;28;20026;-68
2023/12/15 03:50:18;;;;;;;75.40;69.63;;;10.80;99.90;;;;;;5015494;28;20033;-68
2023/12/15 03:52:44;;;;;;;76.97;71.78;;;10.80;99.90;;;;;;5022492;28;20034;-68
2023/12/15 03:55:10;;;;;;;73.97;68.68;;;10.80;99.90;;;;;;5015906;28;20049;-68
2023/12/15 03:57:36;;;;;;;79.68;74.18;;;10.80;99.90;;;;;;5015738;28;20038;-68
2023/12/15 04:00:03;;;;;;;83.93;78.40;;;10.90;99.90;;;;;;5015488;28;20026;-68
2023/12/15 04:02:29;;;;;;;75.90;70.80;;;10.90;99.90;;;;;;5014319;28;20042;-68
2023/12/15 04:04:55;;;;;;;81.78;76.55;;;10.90;99.90;;;;;;5015626;28;20045;-68
2023/12/15 04:07:21;;;;;;;89.72;83.72;;;10.90;99.90;;;;;;5015349;28;20041;-68
2023/12/15 04:09:50;;;;;;;92.88;87.10;;;10.90;99.90;;;;;;5019327;28;20382;-69
2023/12/15 04:12:16;;;;;;;86.20;80.72;;;10.80;99.90;;;;;;5034195;28;20489;-68
2023/12/15 04:14:42;;;;;;;93.93;87.85;;;10.80;99.90;;;;;;5035113;28;20033;-67
2023/12/15 04:17:08;;;;;;;105.47;98.50;;;10.80;99.90;;;;;;5034426;28;20597;-68
2023/12/15 04:19:35;;;;;;;118.22;110.93;;;10.80;99.90;;;;;;5033431;28;20029;-68
2023/12/15 04:22:01;;;;;;;100.63;94.40;;;10.80;99.90;;;;;;5026048;28;20509;-68
2023/12/15 04:24:27;;;;;;;94.68;88.57;;;10.80;99.90;;;;;;5027889;28;20049;-68
2023/12/15 04:26:53;;;;;;;81.60;76.22;;;10.80;99.90;;;;;;5020636;28;20030;-68
2023/12/15 04:29:19;;;;;;;119.72;112.10;;;10.90;99.90;;;;;;5015068;28;20042;-68
2023/12/15 04:31:45;;;;;;;102.93;96.47;;;10.80;99.90;;;;;;5018244;28;20540;-68
2023/12/15 04:34:11;;;;;;;116.40;109.10;;;10.80;99.90;;;;;;5026984;28;20048;-68
2023/12/15 04:36:39;;;;;;;127.72;119.72;;;10.90;99.90;;;;;;5034599;28;20533;-71
2023/12/15 04:39:06;;;;;;;101.18;94.55;;;10.90;99.90;;;;;;5018674;28;20047;-72
2023/12/15 04:41:33;;;;;;;132.60;124.18;;;10.80;99.90;;;;;;5023191;28;20402;-71
2023/12/15 04:43:59;;;;;;;95.45;89.07;;;10.80;99.90;;;;;;5013347;28;20041;-72
2023/12/15 04:46:29;;;;;;;99.55;93.15;;;10.80;99.90;;;;;;5018922;28;20037;-72
2023/12/15 04:48:56;;;;;;;94.43;88.32;;;10.90;99.90;;;;;;5031197;28;20025;-72
2023/12/15 04:51:22;;;;;;;115.53;108.45;;;10.90;99.90;;;;;;5014545;28;20041;-71
2023/12/15 04:53:48;;;;;;;129.02;120.95;;;10.80;99.90;;;;;;5014614;28;20041;-71
2023/12/15 04:56:15;;;;;;;128.18;120.22;;;10.90;99.90;;;;;;5023038;28;20032;-72
2023/12/15 04:58:41;;;;;;;121.50;114.43;;;10.90;99.90;;;;;;5034066;28;20056;-72
2023/12/15 05:01:13;;;;;;;121.28;113.85;;;10.80;99.90;;;;;;5033466;28;20713;-71
2023/12/15 05:03:43;;;;;;;97.18;91.07;;;10.80;99.90;;;;;;5033013;28;20045;-71
2023/12/15 05:06:19;;;;;;;93.75;87.55;;;10.80;99.90;;;;;;5034032;28;20037;-71
2023/12/15 05:08:46;;;;;;;110.47;103.32;;;10.70;99.90;;;;;;5033994;28;20052;-71
2023/12/15 05:11:12;;;;;;;105.45;99.15;;;10.70;99.90;;;;;;5032498;28;20028;-71
2023/12/15 05:13:38;;;;;;;119.35;112.18;;;10.70;99.90;;;;;;5033565;28;20033;-71
2023/12/15 05:16:05;;;;;;;105.68;99.07;;;10.70;99.90;;;;;;5033002;28;20049;-71
2023/12/15 05:18:31;;;;;;;96.70;90.07;;;10.80;99.90;;;;;;5027284;28;20030;-71
2023/12/15 05:20:58;;;;;;;107.63;100.47;;;10.80;99.90;;;;;;5022382;28;20030;-71
2023/12/15 05:23:24;;;;;;;89.68;83.53;;;10.80;99.90;;;;;;5021115;28;20052;-72
2023/12/15 05:25:50;;;;;;;63.67;59.17;;;10.80;99.90;;;;;;5033122;28;20375;-71
2023/12/15 05:28:16;;;;;;;58.65;54.25;;;10.80;99.90;;;;;;5032779;28;20037;-71
2023/12/15 05:30:42;;;;;;;54.00;50.08;;;10.90;99.90;;;;;;5029630;28;20034;-71
2023/12/15 05:33:08;;;;;;;55.38;50.40;;;10.90;99.90;;;;;;5013812;28;20050;-71
2023/12/15 05:35:35;;;;;;;63.78;59.00;;;10.90;99.90;;;;;;5015624;28;20029;-71
2023/12/15 05:38:02;;;;;;;69.15;64.38;;;10.90;99.90;;;;;;5025545;28;20037;-71
2023/12/15 05:40:28;;;;;;;66.97;62.35;;;10.80;99.90;;;;;;5027898;28;20386;-71
2023/12/15 05:42:55;;;;;;;68.97;63.78;;;10.90;99.90;;;;;;5033202;28;20475;-71
2023/12/15 05:45:21;;;;;;;66.13;61.60;;;10.80;99.90;;;;;;5033063;28;20041;-68
2023/12/15 05:47:47;;;;;;;63.83;58.90;;;10.80;99.90;;;;;;5032786;28;20375;-68
2023/12/15 05:50:13;;;;;;;64.22;59.42;;;10.80;99.90;;;;;;5031706;28;20045;-68
2023/12/15 05:52:39;;;;;;;65.55;60.92;;;10.80;99.90;;;;;;5019648;28;20089;-68
2023/12/15 05:55:06;;;;;;;69.18;64.22;;;10.80;99.90;;;;;;5024556;28;20628;-68
2023/12/15 05:57:32;;;;;;;69.20;64.35;;;10.90;99.90;;;;;;5031907;28;20040;-68
2023/12/15 05:59:58;;;;;;;65.75;60.90;;;10.90;99.90;;;;;;5033289;28;20022;-68
2023/12/15 06:02:24;;;;;;;96.70;89.63;;;10.90;99.90;;;;;;5032095;28;20053;-68
2023/12/15 06:04:51;;;;;;;60.90;55.67;;;10.90;99.90;;;;;;5031008;28;20048;-68
2023/12/15 06:07:19;;;;;;;64.55;58.00;;;10.90;99.90;;;;;;5014999;28;20406;-68
2023/12/15 06:09:45;;;;;;;57.72;53.28;;;10.90;99.90;;;;;;5022291;28;20049;-68
2023/12/15 06:12:11;;;;;;;69.80;65.05;;;10.90;99.90;;;;;;5031620;28;20402;-68
2023/12/15 06:14:38;;;;;;;62.90;58.35;;;10.90;99.90;;;;;;5025742;28;20038;-68
2023/12/15 06:17:07;;;;;;;60.75;56.05;;;10.90;99.90;;;;;;5028242;28;20037;-68
2023/12/15 06:19:33;;;;;;;63.45;58.65;;;11.00;99.90;;;;;;5031669;28;20048;-68
2023/12/15 06:22:00;;;;;;;66.22;61.38;;;11.00;99.90;;;;;;5028455;28;20429;-68
2023/12/15 06:24:26;;;;;;;58.75;54.35;;;11.00;99.90;;;;;;5012789;28;20045;-68
2023/12/15 06:26:52;;;;;;;64.18;59.08;;;10.90;99.90;;;;;;5025136;28;20041;-68
2023/12/15 06:29:18;;;;;;;75.10;69.45;;;10.90;99.90;;;;;;5026795;28;20030;-68
2023/12/15 06:31:47;;;;;;;67.05;62.15;;;11.00;99.90;;;;;;5021877;28;20033;-68
2023/12/15 06:34:13;;;;;;;70.60;65.60;;;10.90;99.90;;;;;;5012308;28;20057;-68
2023/12/15 06:36:40;;;;;;;66.90;62.10;;;10.90;99.90;;;;;;5031101;28;20521;-68
2023/12/15 06:39:06;;;;;;;62.38;57.47;;;10.90;99.90;;;;;;5032569;28;20037;-68
2023/12/15 06:41:32;;;;;;;74.32;69.10;;;10.90;99.90;;;;;;5019847;28;20387;-68
2023/12/15 06:43:58;;;;;;;80.30;74.80;;;10.90;99.90;;;;;;5012565;28;20042;-68
2023/12/15 06:46:25;;;;;;;91.57;85.63;;;10.80;99.90;;;;;;5022290;28;20021;-71
2023/12/15 06:48:53;;;;;;;88.55;82.47;;;10.80;99.90;;;;;;5030141;28;20053;-71
2023/12/15 06:51:19;;;;;;;78.15;72.93;;;10.80;99.90;;;;;;5031833;28;20018;-71
2023/12/15 06:53:45;;;;;;;91.65;85.45;;;10.90;99.90;;;;;;5014107;28;20049;-71
2023/12/15 06:56:11;;;;;;;72.60;67.22;;;10.70;99.90;;;;;;5030657;28;20017;-71
2023/12/15 06:58:37;;;;;;;75.40;69.93;;;10.70;99.90;;;;;;5023354;28;20482;-71
2023/12/15 07:01:04;;;;;;;77.78;71.93;;;10.80;99.90;;;;;;5021707;28;20033;-71
2023/12/15 07:03:31;;;;;;;74.65;68.68;;;10.70;99.90;;;;;;5016136;28;20038;-71
2023/12/15 07:05:57;;;;;;;95.30;88.28;;;10.80;99.90;;;;;;5017774;28;20033;-71
2023/12/15 07:08:23;;;;;;;93.47;86.22;;;10.70;99.90;;;;;;5028464;28;20033;-64
2023/12/15 07:10:49;;;;;;;150.10;87.10;;;10.70;99.90;;;;;;5007121;28;20036;-71
2023/12/15 07:13:15;;;;;;;89.53;82.35;;;10.70;99.90;;;;;;5031206;28;20037;-72
2023/12/15 07:15:41;;;;;;;72.97;66.90;;;10.70;99.90;;;;;;5029675;28;20033;-72
2023/12/15 07:18:07;;;;;;;84.78;78.25;;;10.70;99.90;;;;;;5035273;28;20029;-70
2023/12/15 07:20:34;;;;;;;64.43;55.30;;;10.70;99.90;;;;;;5035818;28;20413;-71
2023/12/15 07:23:01;;;;;;;63.05;57.00;;;10.70;99.90;;;;;;5033287;28;20363;-71
2023/12/15 07:25:27;;;;;;;70.00;63.00;;;10.70;99.90;;;;;;5018296;28;20040;-70
2023/12/15 07:27:53;;;;;;;135.40;66.10;;;10.70;99.90;;;;;;5034317;28;20037;-71
2023/12/15 07:30:20;;;;;;;662.50;92.15;;;10.70;99.90;;;;;;5034519;28;20046;-71
2023/12/15 07:32:47;;;;;;;86.43;79.60;;;10.70;99.90;;;;;;5035847;28;20422;-70
2023/12/15 07:35:13;;;;;;;72.18;65.45;;;10.70;99.90;;;;;;5036034;28;20394;-71
2023/12/15 07:37:39;;;;;;;70.07;63.30;;;10.70;99.90;;;;;;5035541;28;20029;-71
2023/12/15 07:40:06;;;;;;;63.92;58.30;;;10.70;99.90;;;;;;5034218;28;20363;-71
2023/12/15 07:42:32;;;;;;;68.95;63.00;;;10.80;99.90;;;;;;5035529;28;20021;-71
2023/12/15 07:44:58;;;;;;;353.92;77.82;;;10.70;99.90;;;;;;5035914;28;20037;-71
2023/12/15 07:47:25;;;;;;;60.08;54.40;;;10.80;99.90;;;;;;5033568;28;20030;-71
2023/12/15 07:49:51;;;;;;;59.17;53.90;;;10.80;99.90;;;;;;5035877;28;20482;-71
2023/12/15 07:52:17;;;;;;;63.67;57.97;;;10.70;99.90;;;;;;5035369;28;20026;-71
2023/12/15 07:54:43;;;;;;;69.28;63.60;;;10.70;99.90;;;;;;5034835;28;20021;-71
2023/12/15 07:57:09;;;;;;;62.58;56.88;;;10.70;99.90;;;;;;5035268;28;20488;-73
2023/12/15 07:59:35;;;;;;;68.03;62.22;;;10.80;99.90;;;;;;5034261;28;20044;-72
2023/12/15 08:02:03;;;;;;;61.65;55.35;;;10.70;99.90;;;;;;5034653;28;20041;-71
2023/12/15 08:04:29;;;;;;;1856.38;234.75;;;10.70;99.90;;;;;;5035247;28;20057;-72
2023/12/15 08:06:55;;;;;;;85.93;79.18;;;10.60;99.90;;;;;;5024677;28;20493;-71
2023/12/15 08:09:21;;;;;;;130.85;121.47;;;10.60;99.90;;;;;;5034756;28;20037;-71
2023/12/15 08:11:48;;;;;;;109.45;101.13;;;10.60;99.90;;;;;;5020436;28;20038;-71
2023/12/15 08:14:14;;;;;;;100.55;92.75;;;10.70;99.90;;;;;;5019697;28;20048;-71
2023/12/15 08:16:40;;;;;;;80.80;74.00;;;10.60;99.90;;;;;;5016010;28;20034;-71
2023/12/15 08:19:08;;;;;;;450.50;94.82;;;10.60;99.90;;;;;;5022232;28;20048;-71
2023/12/15 08:21:34;;;;;;;74.13;68.60;;;10.70;99.90;;;;;;5033015;28;20056;-71
2023/12/15 08:24:00;;;;;;;86.70;80.55;;;10.70;99.90;;;;;;5028890;28;20041;-71
2023/12/15 08:26:27;;;;;;;73.60;68.22;;;10.70;99.90;;;;;;5024599;28;20053;-71
2023/12/15 08:28:56;;;;;;;72.00;66.72;;;10.70;99.90;;;;;;5025716;28;20402;-71
2023/12/15 08:31:22;;;;;;;384.45;83.55;;;10.70;99.90;;;;;;5022072;28;20034;-71
2023/12/15 08:33:49;;;;;;;59.72;54.88;;;10.80;99.90;;;;;;5014971;28;20041;-71
2023/12/15 08:36:15;;;;;;;77.13;71.28;;;10.80;99.90;;;;;;5020347;28;20033;-71
2023/12/15 08:38:41;;;;;;;65.35;60.60;;;10.80;99.90;;;;;;5033460;28;20021;-71
2023/12/15 08:41:07;;;;;;;59.83;54.75;;;10.80;99.90;;;;;;5027464;28;20037;-73
2023/12/15 08:43:34;;;;;;;65.75;60.85;;;10.80;99.90;;;;;;5017426;28;20038;-71
2023/12/15 08:46:00;;;;;;;64.70;59.60;;;10.80;99.90;;;;;;5031358;28;20029;-73
2023/12/15 08:48:26;;;;;;;72.05;66.82;;;10.80;99.90;;;;;;5033723;28;20045;-71
2023/12/15 08:50:53;;;;;;;68.05;62.95;;;10.80;99.90;;;;;;5021834;28;20525;-71
2023/12/15 08:53:19;;;;;;;95.03;68.72;;;10.80;99.90;;;;;;5016253;28;20033;-70
2023/12/15 08:55:45;;;;;;;106.30;99.07;;;10.90;99.90;;;;;;5026104;28;20021;-71
2023/12/15 08:58:12;;;;;;;141.90;133.25;;;10.90;99.90;;;;;;5030816;28;20037;-71
2023/12/15 09:00:38;;;;;;;97.85;91.03;;;10.90;99.90;;;;;;5022473;28;20038;-71
2023/12/15 09:03:04;;;;;;;95.57;89.13;;;10.80;99.90;;;;;;5034263;28;20025;-71
2023/12/15 09:05:31;;;;;;;71.25;66.00;;;10.80;99.90;;;;;;5033505;28;20113;-71
2023/12/15 09:07:58;;;;;;;88.15;82.40;;;10.90;99.90;;;;;;5034341;28;20025;-71
2023/12/15 09:10:25;;;;;;;64.78;59.85;;;10.90;99.90;;;;;;5031784;28;20037;-72
2023/12/15 09:12:51;;;;;;;67.57;62.75;;;10.90;99.90;;;;;;5034168;28;20030;-71
2023/12/15 09:15:17;;;;;;;66.38;61.75;;;10.80;99.90;;;;;;5033048;28;20038;-71
2023/12/15 09:17:44;;;;;;;57.10;52.92;;;10.90;99.90;;;;;;5033682;28;20042;-72
2023/12/15 09:20:11;;;;;;;51.35;47.17;;;10.80;99.90;;;;;;5033271;28;20040;-71
2023/12/15 09:22:38;;;;;;;59.83;55.10;;;10.90;99.90;;;;;;5032779;28;20036;-71
2023/12/15 09:25:05;;;;;;;64.97;60.00;;;10.90;99.90;;;;;;5033875;28;20052;-73
2023/12/15 09:27:31;;;;;;;67.03;62.28;;;11.00;99.90;;;;;;5033321;28;20046;-73
2023/12/15 09:29:59;;;;;;;829.22;108.57;;;11.00;99.90;;;;;;5033856;28;20386;-73
2023/12/15 09:32:25;;;;;;;74.53;69.53;;;11.00;99.90;;;;;;5030864;28;20040;-73
2023/12/15 09:34:52;;;;;;;87.82;81.95;;;11.00;99.90;;;;;;5031909;28;20049;-73
2023/12/15 09:37:18;;;;;;;87.60;81.60;;;11.00;99.90;;;;;;5033496;28;20033;-73
2023/12/15 09:39:44;;;;;;;75.07;69.78;;;11.00;99.90;;;;;;5032719;28;20037;-73
2023/12/15 09:42:10;;;;;;;68.35;63.40;;;11.00;99.90;;;;;;5033316;28;20041;-73
2023/12/15 09:44:36;;;;;;;76.85;71.13;;;10.90;99.90;;;;;;5032229;28;20048;-73
2023/12/15 09:47:02;;;;;;;71.70;66.65;;;11.00;99.90;;;;;;5031546;28;20033;-73
2023/12/15 09:49:28;;;;;;;70.35;65.43;;;11.00;99.90;;;;;;5015134;28;20406;-72
2023/12/15 09:51:54;;;;;;;72.38;67.03;;;11.00;99.90;;;;;;5031766;28;20044;-73
2023/12/15 09:54:21;;;;;;;61.17;56.75;;;10.90;99.90;;;;;;5015480;28;20502;-73
2023/12/15 09:56:47;;;;;;;72.03;66.70;;;11.00;99.90;;;;;;5031780;28;20029;-72
2023/12/15 09:59:13;;;;;;;73.63;68.53;;;11.00;99.90;;;;;;5032265;28;20033;-73
2023/12/15 10:01:39;;;;;;;66.18;61.35;;;10.80;99.90;;;;;;5020677;28;20490;-75
2023/12/15 10:04:06;;;;;;;93.07;86.93;;;10.90;99.90;;;;;;5024708;28;20060;-73
2023/12/15 10:06:35;;;;;;;95.80;89.28;;;10.90;99.90;;;;;;5014542;28;20037;-72
2023/12/15 10:09:02;;;;;;;64.40;60.13;;;10.80;99.90;;;;;;5031810;28;20029;-73
2023/12/15 10:11:29;;;;;;;83.38;77.85;;;10.90;99.90;;;;;;5032768;28;20064;-72
2023/12/15 10:13:56;;;;;;;94.68;89.10;;;10.90;99.90;;;;;;5030955;28;20041;-72
2023/12/15 10:16:22;;;;;;;102.85;96.68;;;10.80;99.90;;;;;;5032206;28;20040;-72
2023/12/15 10:18:48;;;;;;;79.28;74.35;;;10.80;99.90;;;;;;5031232;28;20034;-72
2023/12/15 10:21:14;;;;;;;92.63;86.07;;;11.00;99.90;;;;;;5032822;28;20382;-72
2023/12/15 10:23:40;;;;;;;118.10;110.25;;;11.00;99.90;;;;;;5026369;28;20034;-72
2023/12/15 10:26:06;;;;;;;79.28;73.95;;;10.90;99.90;;;;;;5024206;28;20390;-72
2023/12/15 10:28:39;;;;;;;69.90;65.45;;;10.90;99.90;;;;;;5023568;28;20360;-73
2023/12/15 10:31:05;;;;;;;78.13;72.47;;;11.10;99.90;;;;;;5031633;28;20044;-73
2023/12/15 10:33:33;;;;;;;105.50;99.15;;;11.20;99.90;;;;;;5030191;28;20060;-72
2023/12/15 10:36:00;;;;;;;164.73;153.27;;;11.20;99.90;;;;;;5031117;28;20040;-71
2023/12/15 10:38:28;;;;;;;193.43;180.00;;;11.10;99.90;;;;;;5030967;28;20064;-71
2023/12/15 10:40:54;;;;;;;128.73;119.00;;;11.20;99.90;;;;;;5027029;28;20030;-73
2023/12/15 10:43:21;;;;;;;125.03;114.03;;;11.00;99.90;;;;;;5021968;28;20030;-71
2023/12/15 10:45:47;;;;;;;116.97;107.53;;;10.90;99.90;;;;;;5026014;28;20045;-71
2023/12/15 10:48:13;;;;;;;117.32;107.32;;;11.10;99.90;;;;;;5029511;28;20022;-71
2023/12/15 10:50:41;;;;;;;109.82;101.95;;;11.10;99.90;;;;;;5015974;28;20029;-71
2023/12/15 10:53:11;;;;;;;86.35;80.30;;;11.10;99.90;;;;;;5029860;28;20033;-71
2023/12/15 10:55:37;;;;;;;62.47;57.72;;;11.10;99.90;;;;;;5027568;28;20045;-71
2023/12/15 10:58:06;;;;;;;94.35;87.95;;;11.00;99.90;;;;;;5031899;28;20497;-71
2023/12/15 11:00:32;;;;;;;57.10;52.97;;;10.90;99.90;;;;;;5026436;28;20829;-70
2023/12/15 11:02:58;;;;;;;51.17;47.17;;;10.90;99.90;;;;;;5011334;28;20025;-70
2023/12/15 11:05:26;;;;;;;36.40;32.92;;;10.80;99.90;;;;;;5012312;28;20766;-71
2023/12/15 11:07:52;;;;;;;43.50;39.67;;;10.80;99.90;;;;;;5012390;28;20023;-70
2023/12/15 11:10:19;;;;;;;38.13;34.58;;;10.80;99.90;;;;;;4998932;28;20040;-70
2023/12/15 11:12:45;;;;;;;36.33;33.08;;;10.80;99.90;;;;;;5032275;28;20455;-71
2023/12/15 11:15:12;;;;;;;41.55;37.92;;;10.80;99.90;;;;;;5030924;28;20033;-70
2023/12/15 11:17:55;;;;;;;41.72;38.22;;;10.80;99.90;;;;;;5032123;28;20030;-71
2023/12/15 11:20:22;;;;;;;35.53;32.53;;;10.90;99.90;;;;;;5031552;28;20057;-70
2023/12/15 11:22:51;;;;;;;30.73;27.70;;;10.80;99.90;;;;;;5031847;28;20045;-70
2023/12/15 11:25:24;;;;;;;35.10;32.20;;;10.90;99.90;;;;;;5031863;28;20103;-71
2023/12/15 11:28:09;;;;;;;41.05;37.80;;;11.00;99.90;;;;;;5017785;28;20038;-71
2023/12/15 11:30:37;;;;;;;35.40;32.28;;;11.00;99.90;;;;;;5015568;28;20041;-71
2023/12/15 11:33:31;;;;;;;38.58;34.95;;;11.00;99.90;;;;;;5016080;28;20042;-72
2023/12/15 11:36:02;;;;;;;37.17;34.40;;;11.10;99.90;;;;;;5030311;28;20040;-70
2023/12/15 11:38:28;;;;;;;43.78;40.20;;;11.10;99.90;;;;;;5028315;28;20033;-71
2023/12/15 11:40:54;;;;;;;48.47;44.08;;;11.10;99.90;;;;;;5030086;28;20048;-71
2023/12/15 11:43:20;;;;;;;64.63;60.00;;;11.20;99.90;;;;;;5030040;28;20021;-71
2023/12/15 11:45:48;;;;;;;55.72;51.35;;;11.20;99.90;;;;;;5030378;28;20072;-71
2023/12/15 11:48:14;;;;;;;67.20;62.70;;;11.20;99.90;;;;;;5031323;28;20045;-70
2023/12/15 11:50:42;;;;;;;106.75;100.40;;;11.20;99.90;;;;;;5029101;28;20049;-73
2023/12/15 11:53:12;;;;;;;66.50;62.10;;;11.10;99.90;;;;;;5029795;28;20026;-73
2023/12/15 11:55:40;;;;;;;54.07;50.50;;;11.10;99.90;;;;;;5029753;28;20026;-73
2023/12/15 11:58:14;;;;;;;180.15;169.88;;;11.10;99.90;;;;;;5026826;28;20030;-73
2023/12/15 12:00:40;;;;;;;78.65;73.55;;;11.20;99.90;;;;;;5014554;28;20505;-73
2023/12/15 12:03:09;;;;;;;123.88;116.03;;;11.20;99.90;;;;;;5032627;28;20032;-73
2023/12/15 12:05:35;;;;;;;60.58;56.60;;;11.30;99.90;;;;;;5034393;28;20038;-73
2023/12/15 12:08:01;;;;;;;64.55;60.88;;;11.30;99.90;;;;;;5033503;28;20029;-73
2023/12/15 12:10:37;;;;;;;99.78;93.75;;;11.30;99.90;;;;;;5034610;28;20109;-73
2023/12/15 12:13:04;;;;;;;110.50;103.68;;;11.30;99.90;;;;;;5033212;28;20168;-73
2023/12/15 12:15:30;;;;;;;73.88;68.75;;;11.40;99.90;;;;;;5033982;28;20030;-72
2023/12/15 12:17:56;;;;;;;107.22;100.40;;;11.30;99.90;;;;;;5034962;28;20040;-73
2023/12/15 12:20:27;;;;;;;105.32;98.78;;;11.40;99.90;;;;;;5033294;28;20390;-73